sensor_id;sensor_type;location;lat;lon;timestamp;pressure;altitude;pressure_sealevel;temperature;humidity
6224;BME280;3145;42.726;23.342;2022-11-15T00:01:08;95959.28;;;2.84;100.00
6224;BME280;3145;42.726;23.342;2022-11-15T00:03:34;95970.22;;;2.89;100.00
6224;BME280;3145;42.726;23.342;2022-11-15T00:06:02;95965.56;;;2.81;100.00
6224;BME280;3145;42.726;23.342;2022-11-15T00:08:30;95968.16;;;2.81;100.00
6224;BME280;3145;42.726;23.342;2022-11-15T00:10:59;95967.47;;;2.79;100.00
6224;BME280;3145;42.726;23.342;2022-11-15T00:13:26;95966.75;;;2.77;100.00
6224;BME280;3145;42.726;23.342;2022-11-15T00:15:56;95969.34;;;2.77;100.00
6224;BME280;3145;42.726;23.342;2022-11-15T00:18:23;95968.75;;;2.74;100.00
6224;BME280;3145;42.726;23.342;2022-11-15T00:20:50;95969.81;;;2.71;100.00
6224;BME280;3145;42.726;23.342;2022-11-15T00:23:17;95964.72;;;2.70;100.00
6224;BME280;3145;42.726;23.342;2022-11-15T00:25:44;95961.53;;;2.66;100.00
6224;BME280;3145;42.726;23.342;2022-11-15T00:28:10;95958.31;;;2.63;100.00
6224;BME280;3145;42.726;23.342;2022-11-15T00:30:37;95956.19;;;2.57;100.00
6224;BME280;3145;42.726;23.342;2022-11-15T00:33:06;95952.84;;;2.55;100.00
6224;BME280;3145;42.726;23.342;2022-11-15T00:35:34;95947.16;;;2.50;100.00
6224;BME280;3145;42.726;23.342;2022-11-15T00:38:01;95950.81;;;2.47;100.00
6224;BME280;3145;42.726;23.342;2022-11-15T00:40:28;95952.69;;;2.45;100.00
6224;BME280;3145;42.726;23.342;2022-11-15T00:42:56;95957.78;;;2.47;100.00
6224;BME280;3145;42.726;23.342;2022-11-15T00:45:23;95939.66;;;2.45;100.00
6224;BME280;3145;42.726;23.342;2022-11-15T00:47:50;95944.63;;;2.37;100.00
6224;BME280;3145;42.726;23.342;2022-11-15T00:50:18;95946.66;;;2.45;100.00
6224;BME280;3145;42.726;23.342;2022-11-15T00:52:45;95949.97;;;2.47;100.00
6224;BME280;3145;42.726;23.342;2022-11-15T00:55:13;95952.69;;;2.45;100.00
6224;BME280;3145;42.726;23.342;2022-11-15T00:57:41;95945.59;;;2.47;100.00
6224;BME280;3145;42.726;23.342;2022-11-15T01:00:09;95942.25;;;2.45;100.00
6224;BME280;3145;42.726;23.342;2022-11-15T01:02:35;95934.56;;;2.44;100.00
6224;BME280;3145;42.726;23.342;2022-11-15T01:05:02;95940.63;;;2.44;100.00
6224;BME280;3145;42.726;23.342;2022-11-15T01:07:30;95934.91;;;2.39;100.00
6224;BME280;3145;42.726;23.342;2022-11-15T01:09:57;95938.34;;;2.40;100.00
6224;BME280;3145;42.726;23.342;2022-11-15T01:12:24;95933.97;;;2.40;100.00
6224;BME280;3145;42.726;23.342;2022-11-15T01:14:51;95935.63;;;2.41;100.00
6224;BME280;3145;42.726;23.342;2022-11-15T01:17:17;95929.94;;;2.36;100.00
6224;BME280;3145;42.726;23.342;2022-11-15T01:19:44;95931.34;;;2.40;100.00
6224;BME280;3145;42.726;23.342;2022-11-15T01:22:11;95939.78;;;2.44;100.00
6224;BME280;3145;42.726;23.342;2022-11-15T01:24:39;95934.66;;;2.42;100.00
6224;BME280;3145;42.726;23.342;2022-11-15T01:27:06;95939.19;;;2.40;100.00
6224;BME280;3145;42.726;23.342;2022-11-15T01:29:32;95932.44;;;2.38;100.00
6224;BME280;3145;42.726;23.342;2022-11-15T01:31:59;95930.63;;;2.38;100.00
6224;BME280;3145;42.726;23.342;2022-11-15T01:34:26;95937.16;;;2.44;100.00
6224;BME280;3145;42.726;23.342;2022-11-15T01:36:53;95938.97;;;2.43;100.00
6224;BME280;3145;42.726;23.342;2022-11-15T01:39:19;95941.91;;;2.39;100.00
6224;BME280;3145;42.726;23.342;2022-11-15T01:41:47;95935.84;;;2.38;100.00
6224;BME280;3145;42.726;23.342;2022-11-15T01:44:41;95927.75;;;2.30;100.00
6224;BME280;3145;42.726;23.342;2022-11-15T01:47:09;95927.50;;;2.22;100.00
6224;BME280;3145;42.726;23.342;2022-11-15T01:49:41;95926.66;;;2.11;100.00
6224;BME280;3145;42.726;23.342;2022-11-15T01:52:13;95934.59;;;2.09;100.00
6224;BME280;3145;42.726;23.342;2022-11-15T01:54:42;95928.84;;;1.93;100.00
6224;BME280;3145;42.726;23.342;2022-11-15T01:57:11;95925.28;;;1.94;100.00
6224;BME280;3145;42.726;23.342;2022-11-15T01:59:40;95924.63;;;2.03;100.00
6224;BME280;3145;42.726;23.342;2022-11-15T02:02:08;95928.63;;;1.96;100.00
6224;BME280;3145;42.726;23.342;2022-11-15T02:04:37;95921.94;;;1.81;100.00
6224;BME280;3145;42.726;23.342;2022-11-15T02:07:07;95929.31;;;1.87;100.00
6224;BME280;3145;42.726;23.342;2022-11-15T02:09:36;95927.63;;;1.86;100.00
6224;BME280;3145;42.726;23.342;2022-11-15T02:12:03;95923.38;;;1.85;100.00
6224;BME280;3145;42.726;23.342;2022-11-15T02:14:32;95928.09;;;1.80;100.00
6224;BME280;3145;42.726;23.342;2022-11-15T02:17:06;95926.34;;;1.92;100.00
6224;BME280;3145;42.726;23.342;2022-11-15T02:22:45;95923.09;;;1.77;100.00
6224;BME280;3145;42.726;23.342;2022-11-15T02:25:37;95925.00;;;1.75;100.00
6224;BME280;3145;42.726;23.342;2022-11-15T02:28:38;95925.63;;;1.66;100.00
6224;BME280;3145;42.726;23.342;2022-11-15T02:31:13;95924.88;;;1.53;100.00
6224;BME280;3145;42.726;23.342;2022-11-15T02:33:53;95926.25;;;1.46;100.00
6224;BME280;3145;42.726;23.342;2022-11-15T02:36:34;95927.41;;;1.42;100.00
6224;BME280;3145;42.726;23.342;2022-11-15T02:39:07;95918.53;;;1.45;100.00
6224;BME280;3145;42.726;23.342;2022-11-15T02:41:39;95920.22;;;1.46;100.00
6224;BME280;3145;42.726;23.342;2022-11-15T02:44:13;95921.91;;;1.34;100.00
6224;BME280;3145;42.726;23.342;2022-11-15T02:46:45;95923.00;;;1.19;100.00
6224;BME280;3145;42.726;23.342;2022-11-15T02:49:33;95924.44;;;1.23;100.00
6224;BME280;3145;42.726;23.342;2022-11-15T02:52:00;95925.59;;;1.19;100.00
6224;BME280;3145;42.726;23.342;2022-11-15T02:54:29;95918.34;;;1.12;100.00
6224;BME280;3145;42.726;23.342;2022-11-15T02:57:00;95929.34;;;1.15;100.00
6224;BME280;3145;42.726;23.342;2022-11-15T03:00:08;95916.25;;;1.17;100.00
6224;BME280;3145;42.726;23.342;2022-11-15T03:02:52;95919.59;;;1.19;100.00
6224;BME280;3145;42.726;23.342;2022-11-15T03:05:25;95924.78;;;1.19;100.00
6224;BME280;3145;42.726;23.342;2022-11-15T03:08:01;95924.44;;;1.23;100.00
6224;BME280;3145;42.726;23.342;2022-11-15T03:10:39;95917.94;;;1.18;100.00
6224;BME280;3145;42.726;23.342;2022-11-15T03:13:16;95932.50;;;1.20;100.00
6224;BME280;3145;42.726;23.342;2022-11-15T03:15:52;95919.13;;;1.25;100.00
6224;BME280;3145;42.726;23.342;2022-11-15T03:18:29;95917.56;;;1.35;100.00
6224;BME280;3145;42.726;23.342;2022-11-15T03:21:00;95920.16;;;1.35;100.00
6224;BME280;3145;42.726;23.342;2022-11-15T03:23:30;95909.63;;;1.36;100.00
6224;BME280;3145;42.726;23.342;2022-11-15T03:25:58;95905.53;;;1.45;100.00
6224;BME280;3145;42.726;23.342;2022-11-15T03:28:30;95901.19;;;1.33;100.00
6224;BME280;3145;42.726;23.342;2022-11-15T03:31:01;95917.00;;;1.42;100.00
6224;BME280;3145;42.726;23.342;2022-11-15T03:33:53;95911.28;;;1.37;100.00
6224;BME280;3145;42.726;23.342;2022-11-15T03:36:22;95909.91;;;1.44;100.00
6224;BME280;3145;42.726;23.342;2022-11-15T03:38:52;95900.94;;;1.48;100.00
6224;BME280;3145;42.726;23.342;2022-11-15T03:41:23;95890.75;;;1.45;100.00
6224;BME280;3145;42.726;23.342;2022-11-15T03:43:53;95901.94;;;1.58;100.00
6224;BME280;3145;42.726;23.342;2022-11-15T03:46:26;95891.31;;;1.61;100.00
6224;BME280;3145;42.726;23.342;2022-11-15T03:49:00;95894.66;;;1.63;100.00
6224;BME280;3145;42.726;23.342;2022-11-15T03:51:31;95903.88;;;1.44;100.00
6224;BME280;3145;42.726;23.342;2022-11-15T03:53:57;95896.19;;;1.42;100.00
6224;BME280;3145;42.726;23.342;2022-11-15T03:56:24;95892.75;;;1.42;100.00
6224;BME280;3145;42.726;23.342;2022-11-15T03:58:51;95879.13;;;1.38;100.00
6224;BME280;3145;42.726;23.342;2022-11-15T04:01:17;95887.94;;;1.48;100.00
6224;BME280;3145;42.726;23.342;2022-11-15T04:03:44;95883.44;;;1.50;100.00
6224;BME280;3145;42.726;23.342;2022-11-15T04:06:12;95888.63;;;1.50;100.00
6224;BME280;3145;42.726;23.342;2022-11-15T04:08:39;95896.19;;;1.42;100.00
6224;BME280;3145;42.726;23.342;2022-11-15T04:11:05;95887.50;;;1.31;100.00
6224;BME280;3145;42.726;23.342;2022-11-15T04:13:32;95891.44;;;1.36;100.00
6224;BME280;3145;42.726;23.342;2022-11-15T04:15:59;95888.38;;;1.42;100.00
6224;BME280;3145;42.726;23.342;2022-11-15T04:18:25;95874.94;;;1.48;100.00
6224;BME280;3145;42.726;23.342;2022-11-15T04:20:52;95872.53;;;1.45;100.00
6224;BME280;3145;42.726;23.342;2022-11-15T04:23:38;95879.22;;;1.37;100.00
6224;BME280;3145;42.726;23.342;2022-11-15T04:26:27;95880.13;;;1.48;100.00
6224;BME280;3145;42.726;23.342;2022-11-15T04:28:54;95885.06;;;1.40;100.00
6224;BME280;3145;42.726;23.342;2022-11-15T04:31:52;95872.81;;;1.53;100.00
6224;BME280;3145;42.726;23.342;2022-11-15T04:34:19;95878.28;;;1.61;100.00
6224;BME280;3145;42.726;23.342;2022-11-15T04:36:45;95863.41;;;1.63;100.00
6224;BME280;3145;42.726;23.342;2022-11-15T04:39:31;95877.38;;;1.73;100.00
6224;BME280;3145;42.726;23.342;2022-11-15T04:41:57;95881.75;;;1.73;100.00
6224;BME280;3145;42.726;23.342;2022-11-15T04:44:24;95872.91;;;1.75;100.00
6224;BME280;3145;42.726;23.342;2022-11-15T04:46:51;95881.47;;;1.88;100.00
6224;BME280;3145;42.726;23.342;2022-11-15T04:49:17;95878.88;;;1.88;100.00
6224;BME280;3145;42.726;23.342;2022-11-15T04:51:44;95880.75;;;1.86;100.00
6224;BME280;3145;42.726;23.342;2022-11-15T04:54:11;95888.34;;;1.89;100.00
6224;BME280;3145;42.726;23.342;2022-11-15T04:56:39;95888.81;;;1.94;100.00
6224;BME280;3145;42.726;23.342;2022-11-15T04:59:06;95876.31;;;1.99;100.00
6224;BME280;3145;42.726;23.342;2022-11-15T05:01:32;95885.44;;;2.05;100.00
6224;BME280;3145;42.726;23.342;2022-11-15T05:03:59;95886.03;;;2.08;100.00
6224;BME280;3145;42.726;23.342;2022-11-15T05:06:43;95891.50;;;2.16;100.00
6224;BME280;3145;42.726;23.342;2022-11-15T05:09:10;95889.47;;;2.20;100.00
6224;BME280;3145;42.726;23.342;2022-11-15T05:11:39;95877.41;;;2.19;100.00
6224;BME280;3145;42.726;23.342;2022-11-15T05:14:07;95891.66;;;2.26;100.00
6224;BME280;3145;42.726;23.342;2022-11-15T05:16:34;95892.25;;;2.40;100.00
6224;BME280;3145;42.726;23.342;2022-11-15T05:19:01;95886.09;;;2.41;100.00
6224;BME280;3145;42.726;23.342;2022-11-15T05:21:28;95891.06;;;2.44;100.00
6224;BME280;3145;42.726;23.342;2022-11-15T05:23:54;95885.38;;;2.50;100.00
6224;BME280;3145;42.726;23.342;2022-11-15T05:26:21;95880.88;;;2.52;100.00
6224;BME280;3145;42.726;23.342;2022-11-15T05:28:53;95878.97;;;2.54;100.00
6224;BME280;3145;42.726;23.342;2022-11-15T05:31:21;95878.97;;;2.54;100.00
6224;BME280;3145;42.726;23.342;2022-11-15T05:33:48;95887.75;;;2.53;100.00
6224;BME280;3145;42.726;23.342;2022-11-15T05:36:20;95878.75;;;2.46;100.00
6224;BME280;3145;42.726;23.342;2022-11-15T05:38:48;95880.06;;;2.52;100.00
6224;BME280;3145;42.726;23.342;2022-11-15T05:41:17;95885.66;;;2.58;100.00
6224;BME280;3145;42.726;23.342;2022-11-15T05:43:45;95879.94;;;2.64;100.00
6224;BME280;3145;42.726;23.342;2022-11-15T05:46:14;95889.31;;;2.67;100.00
6224;BME280;3145;42.726;23.342;2022-11-15T05:48:43;95885.63;;;2.69;100.00
6224;BME280;3145;42.726;23.342;2022-11-15T05:51:12;95885.06;;;2.77;100.00
6224;BME280;3145;42.726;23.342;2022-11-15T05:53:41;95861.47;;;2.67;100.00
6224;BME280;3145;42.726;23.342;2022-11-15T05:56:09;95886.59;;;2.90;100.00
6224;BME280;3145;42.726;23.342;2022-11-15T05:58:36;95876.88;;;2.92;100.00
6224;BME280;3145;42.726;23.342;2022-11-15T06:01:04;95878.75;;;3.01;100.00
6224;BME280;3145;42.726;23.342;2022-11-15T06:03:32;95885.16;;;3.08;100.00
6224;BME280;3145;42.726;23.342;2022-11-15T06:05:59;95884.91;;;3.11;100.00
6224;BME280;3145;42.726;23.342;2022-11-15T06:08:26;95889.63;;;3.17;100.00
6224;BME280;3145;42.726;23.342;2022-11-15T06:10:53;95889.16;;;3.23;100.00
6224;BME280;3145;42.726;23.342;2022-11-15T06:13:20;95887.84;;;3.29;100.00
6224;BME280;3145;42.726;23.342;2022-11-15T06:15:47;95893.66;;;3.32;100.00
6224;BME280;3145;42.726;23.342;2022-11-15T06:18:13;95892.34;;;3.38;100.00
6224;BME280;3145;42.726;23.342;2022-11-15T06:20:41;95889.72;;;3.38;100.00
6224;BME280;3145;42.726;23.342;2022-11-15T06:23:08;95890.09;;;3.33;100.00
6224;BME280;3145;42.726;23.342;2022-11-15T06:25:35;95892.69;;;3.44;100.00
6224;BME280;3145;42.726;23.342;2022-11-15T06:28:02;95882.22;;;3.44;100.00
6224;BME280;3145;42.726;23.342;2022-11-15T06:30:28;95885.06;;;3.52;100.00
6224;BME280;3145;42.726;23.342;2022-11-15T06:32:59;95871.03;;;3.53;100.00
6224;BME280;3145;42.726;23.342;2022-11-15T06:35:27;95880.03;;;3.60;100.00
6224;BME280;3145;42.726;23.342;2022-11-15T06:37:56;95877.19;;;3.63;100.00
6224;BME280;3145;42.726;23.342;2022-11-15T06:40:27;95878.97;;;3.63;100.00
6224;BME280;3145;42.726;23.342;2022-11-15T06:42:57;95874.13;;;3.58;100.00
6224;BME280;3145;42.726;23.342;2022-11-15T06:45:24;95867.50;;;3.54;100.00
6224;BME280;3145;42.726;23.342;2022-11-15T06:47:51;95878.50;;;3.58;100.00
6224;BME280;3145;42.726;23.342;2022-11-15T06:50:18;95874.59;;;3.63;100.00
6224;BME280;3145;42.726;23.342;2022-11-15T06:52:44;95880.69;;;3.53;100.00
6224;BME280;3145;42.726;23.342;2022-11-15T06:55:13;95884.59;;;3.58;100.00
6224;BME280;3145;42.726;23.342;2022-11-15T06:57:46;95874.84;;;3.49;100.00
6224;BME280;3145;42.726;23.342;2022-11-15T07:00:14;95880.06;;;3.49;100.00
6224;BME280;3145;42.726;23.342;2022-11-15T07:02:41;95885.91;;;3.53;100.00
6224;BME280;3145;42.726;23.342;2022-11-15T07:05:08;95882.00;;;3.47;100.00
6224;BME280;3145;42.726;23.342;2022-11-15T07:07:35;95877.88;;;3.34;100.00
6224;BME280;3145;42.726;23.342;2022-11-15T07:10:02;95875.13;;;3.46;100.00
6224;BME280;3145;42.726;23.342;2022-11-15T07:12:30;95869.16;;;3.44;100.00
6224;BME280;3145;42.726;23.342;2022-11-15T07:14:56;95863.59;;;3.49;100.00
6224;BME280;3145;42.726;23.342;2022-11-15T07:17:23;95863.69;;;3.58;100.00
6224;BME280;3145;42.726;23.342;2022-11-15T07:19:50;95864.50;;;3.59;100.00
6224;BME280;3145;42.726;23.342;2022-11-15T07:22:17;95866.91;;;3.51;100.00
6224;BME280;3145;42.726;23.342;2022-11-15T07:24:43;95865.34;;;3.59;100.00
6224;BME280;3145;42.726;23.342;2022-11-15T07:27:10;95868.47;;;3.74;100.00
6224;BME280;3145;42.726;23.342;2022-11-15T07:29:38;95868.06;;;3.89;100.00
6224;BME280;3145;42.726;23.342;2022-11-15T07:32:05;95872.03;;;4.04;100.00
6224;BME280;3145;42.726;23.342;2022-11-15T07:34:31;95872.94;;;4.14;100.00
6224;BME280;3145;42.726;23.342;2022-11-15T07:36:58;95876.22;;;4.16;100.00
6224;BME280;3145;42.726;23.342;2022-11-15T07:39:25;95876.56;;;4.23;100.00
6224;BME280;3145;42.726;23.342;2022-11-15T07:41:51;95869.50;;;4.34;100.00
6224;BME280;3145;42.726;23.342;2022-11-15T07:44:40;95874.00;;;4.32;100.00
6224;BME280;3145;42.726;23.342;2022-11-15T07:47:06;95873.44;;;4.49;100.00
6224;BME280;3145;42.726;23.342;2022-11-15T07:49:33;95874.88;;;4.63;100.00
6224;BME280;3145;42.726;23.342;2022-11-15T07:52:00;95866.81;;;4.75;100.00
6224;BME280;3145;42.726;23.342;2022-11-15T07:54:27;95872.25;;;4.93;100.00
6224;BME280;3145;42.726;23.342;2022-11-15T07:56:53;95869.38;;;4.96;100.00
6224;BME280;3145;42.726;23.342;2022-11-15T07:59:20;95868.97;;;5.00;100.00
6224;BME280;3145;42.726;23.342;2022-11-15T08:01:48;95853.63;;;5.17;100.00
6224;BME280;3145;42.726;23.342;2022-11-15T08:04:15;95851.47;;;5.41;100.00
6224;BME280;3145;42.726;23.342;2022-11-15T08:06:42;95866.66;;;5.56;100.00
6224;BME280;3145;42.726;23.342;2022-11-15T08:09:08;95869.13;;;5.58;100.00
6224;BME280;3145;42.726;23.342;2022-11-15T08:11:35;95863.75;;;5.50;100.00
6224;BME280;3145;42.726;23.342;2022-11-15T08:14:02;95861.88;;;5.22;100.00
6224;BME280;3145;42.726;23.342;2022-11-15T08:16:30;95855.25;;;5.18;100.00
6224;BME280;3145;42.726;23.342;2022-11-15T08:18:58;95865.47;;;5.21;100.00
6224;BME280;3145;42.726;23.342;2022-11-15T08:21:25;95842.03;;;5.19;100.00
6224;BME280;3145;42.726;23.342;2022-11-15T08:23:52;95838.19;;;5.23;100.00
6224;BME280;3145;42.726;23.342;2022-11-15T08:26:19;95852.38;;;5.21;100.00
6224;BME280;3145;42.726;23.342;2022-11-15T08:28:45;95856.91;;;5.19;100.00
6224;BME280;3145;42.726;23.342;2022-11-15T08:31:14;95848.19;;;5.08;100.00
6224;BME280;3145;42.726;23.342;2022-11-15T08:33:42;95848.22;;;4.78;100.00
6224;BME280;3145;42.726;23.342;2022-11-15T08:36:13;95843.97;;;4.77;100.00
6224;BME280;3145;42.726;23.342;2022-11-15T08:38:41;95849.63;;;4.82;100.00
6224;BME280;3145;42.726;23.342;2022-11-15T08:41:13;95851.66;;;4.69;100.00
6224;BME280;3145;42.726;23.342;2022-11-15T08:43:43;95840.47;;;4.67;100.00
6224;BME280;3145;42.726;23.342;2022-11-15T08:46:12;95855.59;;;4.64;100.00
6224;BME280;3145;42.726;23.342;2022-11-15T08:48:39;95843.78;;;4.69;100.00
6224;BME280;3145;42.726;23.342;2022-11-15T08:51:06;95838.81;;;4.66;100.00
6224;BME280;3145;42.726;23.342;2022-11-15T08:53:34;95843.25;;;4.45;100.00
6224;BME280;3145;42.726;23.342;2022-11-15T08:56:01;95832.09;;;4.43;100.00
6224;BME280;3145;42.726;23.342;2022-11-15T08:58:28;95832.69;;;4.56;100.00
6224;BME280;3145;42.726;23.342;2022-11-15T09:00:55;95818.44;;;4.70;100.00
6224;BME280;3145;42.726;23.342;2022-11-15T09:03:22;95830.50;;;4.91;100.00
6224;BME280;3145;42.726;23.342;2022-11-15T09:05:48;95822.56;;;5.03;100.00
6224;BME280;3145;42.726;23.342;2022-11-15T09:08:15;95815.28;;;5.16;100.00
6224;BME280;3145;42.726;23.342;2022-11-15T09:10:43;95809.25;;;5.25;100.00
6224;BME280;3145;42.726;23.342;2022-11-15T09:13:10;95813.41;;;5.37;100.00
6224;BME280;3145;42.726;23.342;2022-11-15T09:15:36;95814.91;;;5.30;100.00
6224;BME280;3145;42.726;23.342;2022-11-15T09:18:03;95802.78;;;4.79;100.00
6224;BME280;3145;42.726;23.342;2022-11-15T09:20:30;95806.78;;;4.83;100.00
6224;BME280;3145;42.726;23.342;2022-11-15T09:22:59;95792.38;;;4.98;100.00
6224;BME280;3145;42.726;23.342;2022-11-15T09:25:26;95785.75;;;5.04;100.00
6224;BME280;3145;42.726;23.342;2022-11-15T09:27:54;95792.25;;;5.10;100.00
6224;BME280;3145;42.726;23.342;2022-11-15T09:30:22;95796.53;;;5.20;100.00
6224;BME280;3145;42.726;23.342;2022-11-15T09:32:49;95791.03;;;5.14;100.00
6224;BME280;3145;42.726;23.342;2022-11-15T09:35:16;95780.50;;;4.94;100.00
6224;BME280;3145;42.726;23.342;2022-11-15T09:37:42;95786.56;;;5.04;100.00
6224;BME280;3145;42.726;23.342;2022-11-15T09:40:11;95783.16;;;5.14;100.00
6224;BME280;3145;42.726;23.342;2022-11-15T09:43:02;95777.97;;;5.33;100.00
6224;BME280;3145;42.726;23.342;2022-11-15T09:45:34;95771.34;;;5.48;100.00
6224;BME280;3145;42.726;23.342;2022-11-15T09:48:33;95773.97;;;5.67;100.00
6224;BME280;3145;42.726;23.342;2022-11-15T09:51:04;95760.84;;;5.67;100.00
6224;BME280;3145;42.726;23.342;2022-11-15T09:53:38;95746.22;;;5.74;100.00
6224;BME280;3145;42.726;23.342;2022-11-15T09:56:13;95762.78;;;5.84;100.00
6224;BME280;3145;42.726;23.342;2022-11-15T09:58:48;95756.44;;;5.77;100.00
6224;BME280;3145;42.726;23.342;2022-11-15T10:01:21;95756.59;;;5.85;100.00
6224;BME280;3145;42.726;23.342;2022-11-15T10:03:56;95742.66;;;5.94;100.00
6224;BME280;3145;42.726;23.342;2022-11-15T10:06:25;95735.88;;;6.01;100.00
6224;BME280;3145;42.726;23.342;2022-11-15T10:08:57;95744.56;;;5.92;100.00
6224;BME280;3145;42.726;23.342;2022-11-15T10:11:30;95740.28;;;6.00;100.00
6224;BME280;3145;42.726;23.342;2022-11-15T10:14:01;95728.13;;;6.09;100.00
6224;BME280;3145;42.726;23.342;2022-11-15T10:19:50;95716.53;;;6.02;100.00
6224;BME280;3145;42.726;23.342;2022-11-15T10:22:26;95720.66;;;6.14;100.00
6224;BME280;3145;42.726;23.342;2022-11-15T10:25:10;95731.88;;;5.97;100.00
6224;BME280;3145;42.726;23.342;2022-11-15T10:27:40;95732.31;;;5.83;100.00
6224;BME280;3145;42.726;23.342;2022-11-15T10:30:13;95725.41;;;5.82;100.00
6224;BME280;3145;42.726;23.342;2022-11-15T10:32:43;95722.91;;;5.80;100.00
6224;BME280;3145;42.726;23.342;2022-11-15T10:35:20;95711.06;;;5.86;100.00
6224;BME280;3145;42.726;23.342;2022-11-15T10:37:48;95695.28;;;6.05;100.00
6224;BME280;3145;42.726;23.342;2022-11-15T10:40:18;95667.09;;;6.07;100.00
6224;BME280;3145;42.726;23.342;2022-11-15T10:42:46;95667.47;;;5.85;100.00
6224;BME280;3145;42.726;23.342;2022-11-15T10:45:31;95688.44;;;5.85;100.00
6224;BME280;3145;42.726;23.342;2022-11-15T10:48:23;95679.31;;;5.79;100.00
6224;BME280;3145;42.726;23.342;2022-11-15T10:50:51;95691.75;;;5.68;100.00
6224;BME280;3145;42.726;23.342;2022-11-15T10:53:25;95671.75;;;5.67;100.00
6224;BME280;3145;42.726;23.342;2022-11-15T10:55:55;95670.47;;;5.90;100.00
6224;BME280;3145;42.726;23.342;2022-11-15T10:58:32;95651.75;;;5.85;100.00
6224;BME280;3145;42.726;23.342;2022-11-15T11:01:11;95658.44;;;6.06;100.00
6224;BME280;3145;42.726;23.342;2022-11-15T11:03:39;95642.72;;;6.24;100.00
6224;BME280;3145;42.726;23.342;2022-11-15T11:06:10;95649.09;;;6.21;100.00
6224;BME280;3145;42.726;23.342;2022-11-15T11:08:37;95647.22;;;6.14;100.00
6224;BME280;3145;42.726;23.342;2022-11-15T11:11:05;95638.44;;;5.96;100.00
6224;BME280;3145;42.726;23.342;2022-11-15T11:13:35;95648.03;;;6.14;100.00
6224;BME280;3145;42.726;23.342;2022-11-15T11:16:21;95639.63;;;6.38;100.00
6224;BME280;3145;42.726;23.342;2022-11-15T11:18:56;95631.84;;;6.46;100.00
6224;BME280;3145;42.726;23.342;2022-11-15T11:21:34;95636.88;;;6.84;100.00
6224;BME280;3145;42.726;23.342;2022-11-15T11:24:08;95620.28;;;7.01;100.00
6224;BME280;3145;42.726;23.342;2022-11-15T11:26:46;95620.13;;;7.20;100.00
6224;BME280;3145;42.726;23.342;2022-11-15T11:29:28;95609.47;;;7.21;100.00
6224;BME280;3145;42.726;23.342;2022-11-15T11:32:02;95603.09;;;7.24;100.00
6224;BME280;3145;42.726;23.342;2022-11-15T11:34:44;95597.25;;;7.38;100.00
6224;BME280;3145;42.726;23.342;2022-11-15T11:37:19;95596.28;;;7.39;100.00
6224;BME280;3145;42.726;23.342;2022-11-15T11:39:58;95586.47;;;7.23;100.00
6224;BME280;3145;42.726;23.342;2022-11-15T11:42:43;95567.00;;;7.34;100.00
6224;BME280;3145;42.726;23.342;2022-11-15T11:45:18;95577.63;;;7.50;100.00
6224;BME280;3145;42.726;23.342;2022-11-15T11:47:52;95575.34;;;7.55;100.00
6224;BME280;3145;42.726;23.342;2022-11-15T11:50:22;95565.34;;;7.84;100.00
6224;BME280;3145;42.726;23.342;2022-11-15T11:52:56;95558.78;;;7.54;100.00
6224;BME280;3145;42.726;23.342;2022-11-15T11:55:29;95556.09;;;7.72;100.00
6224;BME280;3145;42.726;23.342;2022-11-15T11:58:04;95559.28;;;7.58;100.00
6224;BME280;3145;42.726;23.342;2022-11-15T12:00:37;95550.00;;;7.71;100.00
6224;BME280;3145;42.726;23.342;2022-11-15T12:03:09;95543.09;;;7.70;100.00
6224;BME280;3145;42.726;23.342;2022-11-15T12:05:40;95540.06;;;7.91;100.00
6224;BME280;3145;42.726;23.342;2022-11-15T12:08:24;95539.94;;;8.00;100.00
6224;BME280;3145;42.726;23.342;2022-11-15T12:11:03;95532.53;;;7.96;100.00
6224;BME280;3145;42.726;23.342;2022-11-15T12:13:33;95526.47;;;8.03;100.00
6224;BME280;3145;42.726;23.342;2022-11-15T12:16:07;95535.13;;;7.88;100.00
6224;BME280;3145;42.726;23.342;2022-11-15T12:18:47;95526.97;;;7.99;100.00
6224;BME280;3145;42.726;23.342;2022-11-15T12:21:19;95518.75;;;8.10;100.00
6224;BME280;3145;42.726;23.342;2022-11-15T12:23:53;95515.00;;;8.20;100.00
6224;BME280;3145;42.726;23.342;2022-11-15T12:26:24;95513.56;;;8.26;100.00
6224;BME280;3145;42.726;23.342;2022-11-15T12:28:55;95506.69;;;8.33;100.00
6224;BME280;3145;42.726;23.342;2022-11-15T12:31:29;95496.25;;;8.15;100.00
6224;BME280;3145;42.726;23.342;2022-11-15T12:34:02;95502.66;;;8.13;100.00
6224;BME280;3145;42.726;23.342;2022-11-15T12:36:35;95487.03;;;8.19;100.00
6224;BME280;3145;42.726;23.342;2022-11-15T12:39:05;95485.84;;;8.06;100.00
6224;BME280;3145;42.726;23.342;2022-11-15T12:41:33;95496.47;;;8.38;100.00
6224;BME280;3145;42.726;23.342;2022-11-15T12:44:01;95488.88;;;8.19;100.00
6224;BME280;3145;42.726;23.342;2022-11-15T12:49:46;95465.91;;;7.87;100.00
6224;BME280;3145;42.726;23.342;2022-11-15T12:52:14;95490.50;;;8.12;100.00
6224;BME280;3145;42.726;23.342;2022-11-15T12:54:52;95483.47;;;8.28;100.00
6224;BME280;3145;42.726;23.342;2022-11-15T12:57:32;95484.91;;;8.15;100.00
6224;BME280;3145;42.726;23.342;2022-11-15T13:00:00;95475.41;;;8.30;100.00
6224;BME280;3145;42.726;23.342;2022-11-15T13:02:30;95479.06;;;8.45;100.00
6224;BME280;3145;42.726;23.342;2022-11-15T13:07:59;95449.47;;;8.43;100.00
6224;BME280;3145;42.726;23.342;2022-11-15T13:10:30;95452.09;;;8.51;100.00
6224;BME280;3145;42.726;23.342;2022-11-15T13:12:58;95461.31;;;8.63;100.00
6224;BME280;3145;42.726;23.342;2022-11-15T13:15:37;95455.69;;;8.74;100.00
6224;BME280;3145;42.726;23.342;2022-11-15T13:18:34;95457.53;;;8.65;100.00
6224;BME280;3145;42.726;23.342;2022-11-15T13:21:03;95448.78;;;8.57;100.00
6224;BME280;3145;42.726;23.342;2022-11-15T13:23:54;95449.94;;;8.54;100.00
6224;BME280;3145;42.726;23.342;2022-11-15T13:26:21;95444.84;;;8.69;100.00
6224;BME280;3145;42.726;23.342;2022-11-15T13:28:50;95424.09;;;8.66;100.00
6224;BME280;3145;42.726;23.342;2022-11-15T13:31:40;95434.97;;;8.71;100.00
6224;BME280;3145;42.726;23.342;2022-11-15T13:34:24;95432.66;;;8.76;100.00
6224;BME280;3145;42.726;23.342;2022-11-15T13:36:52;95428.38;;;8.83;100.00
6224;BME280;3145;42.726;23.342;2022-11-15T13:39:28;95427.72;;;8.89;100.00
6224;BME280;3145;42.726;23.342;2022-11-15T13:41:55;95428.69;;;8.88;100.00